sensor_id;sensor_type;location;lat;lon;timestamp;P1;durP1;ratioP1;P2;durP2;ratioP2
35444;SDS011;21562;49.476;6.086;2023-07-22T00:01:00;5.95;;;4.28;;
35444;SDS011;21562;49.476;6.086;2023-07-22T00:03:25;10.52;;;4.72;;
35444;SDS011;21562;49.476;6.086;2023-07-22T00:06:02;9.65;;;4.40;;
35444;SDS011;21562;49.476;6.086;2023-07-22T00:08:28;6.40;;;3.97;;
35444;SDS011;21562;49.476;6.086;2023-07-22T00:10:54;7.40;;;4.57;;
35444;SDS011;21562;49.476;6.086;2023-07-22T00:13:19;8.82;;;4.25;;
35444;SDS011;21562;49.476;6.086;2023-07-22T00:15:45;8.18;;;4.50;;
35444;SDS011;21562;49.476;6.086;2023-07-22T00:18:11;6.10;;;4.38;;
35444;SDS011;21562;49.476;6.086;2023-07-22T00:20:36;7.25;;;4.18;;
35444;SDS011;21562;49.476;6.086;2023-07-22T00:23:02;7.10;;;4.25;;
35444;SDS011;21562;49.476;6.086;2023-07-22T00:25:28;6.53;;;4.55;;
35444;SDS011;21562;49.476;6.086;2023-07-22T00:27:53;6.75;;;3.97;;
35444;SDS011;21562;49.476;6.086;2023-07-22T00:30:19;7.03;;;4.43;;
35444;SDS011;21562;49.476;6.086;2023-07-22T00:32:44;7.10;;;3.92;;
35444;SDS011;21562;49.476;6.086;2023-07-22T00:35:10;7.07;;;4.40;;
35444;SDS011;21562;49.476;6.086;2023-07-22T00:37:36;8.73;;;4.30;;
35444;SDS011;21562;49.476;6.086;2023-07-22T00:40:02;7.82;;;4.28;;
35444;SDS011;21562;49.476;6.086;2023-07-22T00:42:36;8.00;;;5.25;;
35444;SDS011;21562;49.476;6.086;2023-07-22T00:45:02;7.45;;;4.78;;
35444;SDS011;21562;49.476;6.086;2023-07-22T00:47:28;11.50;;;5.32;;
35444;SDS011;21562;49.476;6.086;2023-07-22T00:49:54;8.23;;;4.70;;
35444;SDS011;21562;49.476;6.086;2023-07-22T00:52:20;10.98;;;5.10;;
35444;SDS011;21562;49.476;6.086;2023-07-22T00:54:46;9.80;;;5.30;;
35444;SDS011;21562;49.476;6.086;2023-07-22T00:57:12;7.47;;;5.05;;
35444;SDS011;21562;49.476;6.086;2023-07-22T00:59:38;7.68;;;4.50;;
35444;SDS011;21562;49.476;6.086;2023-07-22T01:02:05;7.25;;;4.55;;
35444;SDS011;21562;49.476;6.086;2023-07-22T01:04:32;8.20;;;5.40;;
35444;SDS011;21562;49.476;6.086;2023-07-22T01:06:59;9.88;;;5.50;;
35444;SDS011;21562;49.476;6.086;2023-07-22T01:09:25;9.50;;;5.47;;
35444;SDS011;21562;49.476;6.086;2023-07-22T01:11:51;12.05;;;4.78;;
35444;SDS011;21562;49.476;6.086;2023-07-22T01:14:17;9.32;;;5.30;;
35444;SDS011;21562;49.476;6.086;2023-07-22T01:16:42;8.73;;;5.68;;
35444;SDS011;21562;49.476;6.086;2023-07-22T01:19:08;8.65;;;5.18;;
35444;SDS011;21562;49.476;6.086;2023-07-22T01:21:35;7.53;;;5.07;;
35444;SDS011;21562;49.476;6.086;2023-07-22T01:24:02;9.85;;;5.75;;
35444;SDS011;21562;49.476;6.086;2023-07-22T01:26:28;10.93;;;4.82;;
35444;SDS011;21562;49.476;6.086;2023-07-22T01:29:01;8.55;;;5.75;;
35444;SDS011;21562;49.476;6.086;2023-07-22T01:31:28;9.40;;;5.65;;
35444;SDS011;21562;49.476;6.086;2023-07-22T01:33:53;10.15;;;5.88;;
35444;SDS011;21562;49.476;6.086;2023-07-22T01:36:19;10.90;;;4.95;;
35444;SDS011;21562;49.476;6.086;2023-07-22T01:38:44;8.60;;;5.38;;
35444;SDS011;21562;49.476;6.086;2023-07-22T01:41:10;9.43;;;5.60;;
35444;SDS011;21562;49.476;6.086;2023-07-22T01:43:36;9.60;;;6.03;;
35444;SDS011;21562;49.476;6.086;2023-07-22T01:46:01;9.55;;;5.82;;
35444;SDS011;21562;49.476;6.086;2023-07-22T01:48:27;10.02;;;6.05;;
35444;SDS011;21562;49.476;6.086;2023-07-22T01:50:53;12.27;;;6.20;;
35444;SDS011;21562;49.476;6.086;2023-07-22T01:53:18;8.82;;;5.65;;
35444;SDS011;21562;49.476;6.086;2023-07-22T01:55:45;11.73;;;6.07;;
35444;SDS011;21562;49.476;6.086;2023-07-22T01:58:11;10.40;;;5.88;;
35444;SDS011;21562;49.476;6.086;2023-07-22T02:00:36;10.35;;;5.75;;
35444;SDS011;21562;49.476;6.086;2023-07-22T02:03:02;9.45;;;5.40;;
35444;SDS011;21562;49.476;6.086;2023-07-22T02:05:28;9.52;;;5.43;;
35444;SDS011;21562;49.476;6.086;2023-07-22T02:07:55;9.90;;;5.35;;
35444;SDS011;21562;49.476;6.086;2023-07-22T02:10:21;9.18;;;5.97;;
35444;SDS011;21562;49.476;6.086;2023-07-22T02:12:47;10.73;;;6.20;;
35444;SDS011;21562;49.476;6.086;2023-07-22T02:15:12;12.02;;;5.90;;
35444;SDS011;21562;49.476;6.086;2023-07-22T02:17:38;11.68;;;6.45;;
35444;SDS011;21562;49.476;6.086;2023-07-22T02:20:04;14.45;;;5.93;;
35444;SDS011;21562;49.476;6.086;2023-07-22T02:22:30;8.35;;;5.75;;
35444;SDS011;21562;49.476;6.086;2023-07-22T02:24:56;12.05;;;5.72;;
35444;SDS011;21562;49.476;6.086;2023-07-22T02:27:22;6.82;;;5.20;;
35444;SDS011;21562;49.476;6.086;2023-07-22T02:29:47;10.15;;;5.80;;
35444;SDS011;21562;49.476;6.086;2023-07-22T02:32:13;8.75;;;5.85;;
35444;SDS011;21562;49.476;6.086;2023-07-22T02:34:38;12.63;;;6.00;;
35444;SDS011;21562;49.476;6.086;2023-07-22T02:37:04;9.57;;;5.72;;
35444;SDS011;21562;49.476;6.086;2023-07-22T02:39:30;11.00;;;5.22;;
35444;SDS011;21562;49.476;6.086;2023-07-22T02:41:55;9.02;;;6.38;;
35444;SDS011;21562;49.476;6.086;2023-07-22T02:44:21;8.77;;;5.82;;
35444;SDS011;21562;49.476;6.086;2023-07-22T02:46:47;11.50;;;5.90;;
35444;SDS011;21562;49.476;6.086;2023-07-22T02:49:13;9.07;;;5.80;;
35444;SDS011;21562;49.476;6.086;2023-07-22T02:51:39;10.60;;;5.72;;
35444;SDS011;21562;49.476;6.086;2023-07-22T02:54:04;10.77;;;5.82;;
35444;SDS011;21562;49.476;6.086;2023-07-22T02:56:30;13.90;;;6.63;;
35444;SDS011;21562;49.476;6.086;2023-07-22T02:58:55;10.95;;;6.63;;
35444;SDS011;21562;49.476;6.086;2023-07-22T03:01:21;11.25;;;5.90;;
35444;SDS011;21562;49.476;6.086;2023-07-22T03:03:47;9.70;;;6.00;;
35444;SDS011;21562;49.476;6.086;2023-07-22T03:06:13;14.95;;;6.85;;
35444;SDS011;21562;49.476;6.086;2023-07-22T03:08:39;14.60;;;7.30;;
35444;SDS011;21562;49.476;6.086;2023-07-22T03:11:04;13.93;;;6.55;;
35444;SDS011;21562;49.476;6.086;2023-07-22T03:13:30;12.48;;;7.05;;
35444;SDS011;21562;49.476;6.086;2023-07-22T03:15:56;11.07;;;7.07;;
35444;SDS011;21562;49.476;6.086;2023-07-22T03:18:23;10.90;;;6.97;;
35444;SDS011;21562;49.476;6.086;2023-07-22T03:20:48;11.23;;;7.00;;
35444;SDS011;21562;49.476;6.086;2023-07-22T03:23:14;11.00;;;7.20;;
35444;SDS011;21562;49.476;6.086;2023-07-22T03:25:40;12.15;;;7.32;;
35444;SDS011;21562;49.476;6.086;2023-07-22T03:28:06;12.23;;;7.20;;
35444;SDS011;21562;49.476;6.086;2023-07-22T03:30:32;14.10;;;6.72;;
35444;SDS011;21562;49.476;6.086;2023-07-22T03:32:58;10.27;;;6.70;;
35444;SDS011;21562;49.476;6.086;2023-07-22T03:35:24;12.98;;;6.47;;
35444;SDS011;21562;49.476;6.086;2023-07-22T03:37:49;11.20;;;6.70;;
35444;SDS011;21562;49.476;6.086;2023-07-22T03:40:15;13.77;;;7.57;;
35444;SDS011;21562;49.476;6.086;2023-07-22T03:42:53;11.30;;;6.75;;
35444;SDS011;21562;49.476;6.086;2023-07-22T03:45:20;12.68;;;7.10;;
35444;SDS011;21562;49.476;6.086;2023-07-22T03:47:50;11.70;;;6.80;;
35444;SDS011;21562;49.476;6.086;2023-07-22T03:50:18;10.63;;;6.50;;
35444;SDS011;21562;49.476;6.086;2023-07-22T03:52:44;10.93;;;7.03;;
35444;SDS011;21562;49.476;6.086;2023-07-22T03:55:09;11.60;;;7.47;;
35444;SDS011;21562;49.476;6.086;2023-07-22T03:57:35;17.40;;;7.03;;
35444;SDS011;21562;49.476;6.086;2023-07-22T04:00:01;14.00;;;7.50;;
35444;SDS011;21562;49.476;6.086;2023-07-22T04:02:28;10.05;;;6.18;;
35444;SDS011;21562;49.476;6.086;2023-07-22T04:04:54;13.60;;;7.50;;
35444;SDS011;21562;49.476;6.086;2023-07-22T04:07:20;12.15;;;7.18;;
35444;SDS011;21562;49.476;6.086;2023-07-22T04:09:47;12.68;;;7.05;;
35444;SDS011;21562;49.476;6.086;2023-07-22T04:12:13;16.48;;;7.50;;
35444;SDS011;21562;49.476;6.086;2023-07-22T04:14:39;12.38;;;6.70;;
35444;SDS011;21562;49.476;6.086;2023-07-22T04:17:05;16.92;;;6.68;;
35444;SDS011;21562;49.476;6.086;2023-07-22T04:19:30;12.15;;;7.25;;
35444;SDS011;21562;49.476;6.086;2023-07-22T04:21:56;14.00;;;6.65;;
35444;SDS011;21562;49.476;6.086;2023-07-22T04:24:22;9.77;;;6.20;;
35444;SDS011;21562;49.476;6.086;2023-07-22T04:26:48;10.75;;;7.03;;
35444;SDS011;21562;49.476;6.086;2023-07-22T04:29:13;12.52;;;7.03;;
35444;SDS011;21562;49.476;6.086;2023-07-22T04:31:39;12.75;;;6.95;;
35444;SDS011;21562;49.476;6.086;2023-07-22T04:34:05;11.48;;;6.78;;
35444;SDS011;21562;49.476;6.086;2023-07-22T04:36:31;14.40;;;6.47;;
35444;SDS011;21562;49.476;6.086;2023-07-22T04:38:57;14.40;;;6.43;;
35444;SDS011;21562;49.476;6.086;2023-07-22T04:41:23;11.82;;;6.70;;
35444;SDS011;21562;49.476;6.086;2023-07-22T04:43:49;11.93;;;6.50;;
35444;SDS011;21562;49.476;6.086;2023-07-22T04:46:16;9.85;;;5.53;;
35444;SDS011;21562;49.476;6.086;2023-07-22T04:48:42;9.82;;;5.95;;
35444;SDS011;21562;49.476;6.086;2023-07-22T04:51:08;15.07;;;6.50;;
35444;SDS011;21562;49.476;6.086;2023-07-22T04:53:33;9.00;;;5.85;;
35444;SDS011;21562;49.476;6.086;2023-07-22T04:55:59;9.23;;;6.53;;
35444;SDS011;21562;49.476;6.086;2023-07-22T04:58:24;8.05;;;5.32;;
35444;SDS011;21562;49.476;6.086;2023-07-22T05:00:50;8.38;;;6.13;;
35444;SDS011;21562;49.476;6.086;2023-07-22T05:03:16;10.75;;;5.93;;
35444;SDS011;21562;49.476;6.086;2023-07-22T05:05:43;10.45;;;5.95;;
35444;SDS011;21562;49.476;6.086;2023-07-22T05:08:09;10.23;;;6.00;;
35444;SDS011;21562;49.476;6.086;2023-07-22T05:10:36;9.75;;;5.85;;
35444;SDS011;21562;49.476;6.086;2023-07-22T05:13:03;11.85;;;5.88;;
35444;SDS011;21562;49.476;6.086;2023-07-22T05:15:28;9.85;;;6.13;;
35444;SDS011;21562;49.476;6.086;2023-07-22T05:17:54;9.93;;;5.70;;
35444;SDS011;21562;49.476;6.086;2023-07-22T05:20:20;10.80;;;5.65;;
35444;SDS011;21562;49.476;6.086;2023-07-22T05:22:45;11.07;;;5.38;;
35444;SDS011;21562;49.476;6.086;2023-07-22T05:25:11;8.45;;;5.22;;
35444;SDS011;21562;49.476;6.086;2023-07-22T05:27:36;8.55;;;5.38;;
35444;SDS011;21562;49.476;6.086;2023-07-22T05:30:02;8.77;;;5.70;;
35444;SDS011;21562;49.476;6.086;2023-07-22T05:32:29;7.53;;;4.78;;
35444;SDS011;21562;49.476;6.086;2023-07-22T05:34:57;7.38;;;4.90;;
35444;SDS011;21562;49.476;6.086;2023-07-22T05:37:23;6.10;;;4.20;;
35444;SDS011;21562;49.476;6.086;2023-07-22T05:39:49;7.88;;;4.90;;
35444;SDS011;21562;49.476;6.086;2023-07-22T05:42:16;10.10;;;4.43;;
35444;SDS011;21562;49.476;6.086;2023-07-22T05:44:42;10.38;;;5.03;;
35444;SDS011;21562;49.476;6.086;2023-07-22T05:47:08;8.10;;;5.47;;
35444;SDS011;21562;49.476;6.086;2023-07-22T05:49:34;9.48;;;5.03;;
35444;SDS011;21562;49.476;6.086;2023-07-22T05:51:59;7.43;;;4.75;;
35444;SDS011;21562;49.476;6.086;2023-07-22T05:54:25;11.40;;;4.18;;
35444;SDS011;21562;49.476;6.086;2023-07-22T05:56:51;9.15;;;4.35;;
35444;SDS011;21562;49.476;6.086;2023-07-22T05:59:17;9.68;;;4.60;;
35444;SDS011;21562;49.476;6.086;2023-07-22T06:01:43;8.98;;;4.57;;
35444;SDS011;21562;49.476;6.086;2023-07-22T06:04:08;7.88;;;4.78;;
35444;SDS011;21562;49.476;6.086;2023-07-22T06:06:34;9.35;;;4.25;;
35444;SDS011;21562;49.476;6.086;2023-07-22T06:09:00;6.68;;;4.30;;
35444;SDS011;21562;49.476;6.086;2023-07-22T06:11:26;10.13;;;4.47;;
35444;SDS011;21562;49.476;6.086;2023-07-22T06:13:53;6.93;;;4.53;;
35444;SDS011;21562;49.476;6.086;2023-07-22T06:16:19;8.77;;;4.32;;
35444;SDS011;21562;49.476;6.086;2023-07-22T06:18:44;6.43;;;4.28;;
35444;SDS011;21562;49.476;6.086;2023-07-22T06:21:10;7.53;;;3.97;;
35444;SDS011;21562;49.476;6.086;2023-07-22T06:23:36;7.10;;;4.00;;
35444;SDS011;21562;49.476;6.086;2023-07-22T06:26:02;8.40;;;4.00;;
35444;SDS011;21562;49.476;6.086;2023-07-22T06:28:27;9.45;;;4.43;;
35444;SDS011;21562;49.476;6.086;2023-07-22T06:30:53;9.52;;;4.38;;
35444;SDS011;21562;49.476;6.086;2023-07-22T06:33:19;8.10;;;4.38;;
35444;SDS011;21562;49.476;6.086;2023-07-22T06:35:44;7.38;;;4.10;;
35444;SDS011;21562;49.476;6.086;2023-07-22T06:38:10;9.48;;;4.60;;
35444;SDS011;21562;49.476;6.086;2023-07-22T06:40:36;7.60;;;4.38;;
35444;SDS011;21562;49.476;6.086;2023-07-22T06:43:01;8.00;;;4.20;;
35444;SDS011;21562;49.476;6.086;2023-07-22T06:45:27;7.13;;;3.58;;
35444;SDS011;21562;49.476;6.086;2023-07-22T06:47:53;6.05;;;2.67;;
35444;SDS011;21562;49.476;6.086;2023-07-22T06:50:18;5.90;;;3.30;;
35444;SDS011;21562;49.476;6.086;2023-07-22T06:52:44;7.47;;;3.45;;
35444;SDS011;21562;49.476;6.086;2023-07-22T06:55:09;10.48;;;3.83;;
35444;SDS011;21562;49.476;6.086;2023-07-22T06:57:35;6.30;;;3.72;;
35444;SDS011;21562;49.476;6.086;2023-07-22T07:00:01;4.68;;;3.30;;
35444;SDS011;21562;49.476;6.086;2023-07-22T07:02:27;7.30;;;3.95;;
35444;SDS011;21562;49.476;6.086;2023-07-22T07:04:53;10.20;;;4.32;;
35444;SDS011;21562;49.476;6.086;2023-07-22T07:07:18;14.43;;;4.75;;
35444;SDS011;21562;49.476;6.086;2023-07-22T07:09:44;10.35;;;4.10;;
35444;SDS011;21562;49.476;6.086;2023-07-22T07:12:10;7.82;;;3.50;;
35444;SDS011;21562;49.476;6.086;2023-07-22T07:14:35;6.95;;;3.97;;
35444;SDS011;21562;49.476;6.086;2023-07-22T07:17:01;8.20;;;3.85;;
35444;SDS011;21562;49.476;6.086;2023-07-22T07:19:27;7.82;;;3.78;;
35444;SDS011;21562;49.476;6.086;2023-07-22T07:21:53;7.03;;;3.88;;
35444;SDS011;21562;49.476;6.086;2023-07-22T07:24:19;6.78;;;3.33;;
35444;SDS011;21562;49.476;6.086;2023-07-22T07:26:45;12.10;;;4.03;;
35444;SDS011;21562;49.476;6.086;2023-07-22T07:29:10;10.57;;;3.83;;
35444;SDS011;21562;49.476;6.086;2023-07-22T07:31:37;5.85;;;3.78;;
35444;SDS011;21562;49.476;6.086;2023-07-22T07:34:03;8.13;;;3.90;;
35444;SDS011;21562;49.476;6.086;2023-07-22T07:36:29;9.27;;;4.25;;
35444;SDS011;21562;49.476;6.086;2023-07-22T07:38:54;7.60;;;4.22;;
35444;SDS011;21562;49.476;6.086;2023-07-22T07:41:20;10.60;;;3.97;;
35444;SDS011;21562;49.476;6.086;2023-07-22T07:43:46;5.45;;;3.45;;
35444;SDS011;21562;49.476;6.086;2023-07-22T07:46:12;8.73;;;3.80;;
35444;SDS011;21562;49.476;6.086;2023-07-22T07:48:53;6.95;;;3.40;;
35444;SDS011;21562;49.476;6.086;2023-07-22T07:51:21;7.07;;;3.58;;
35444;SDS011;21562;49.476;6.086;2023-07-22T07:53:49;5.72;;;4.03;;
35444;SDS011;21562;49.476;6.086;2023-07-22T07:56:15;7.07;;;4.43;;
35444;SDS011;21562;49.476;6.086;2023-07-22T07:58:43;5.30;;;3.70;;
35444;SDS011;21562;49.476;6.086;2023-07-22T08:01:09;10.52;;;3.95;;
35444;SDS011;21562;49.476;6.086;2023-07-22T08:03:36;7.57;;;3.50;;
35444;SDS011;21562;49.476;6.086;2023-07-22T08:06:02;4.65;;;3.38;;
35444;SDS011;21562;49.476;6.086;2023-07-22T08:08:28;8.50;;;3.58;;
35444;SDS011;21562;49.476;6.086;2023-07-22T08:11:15;5.55;;;3.95;;
35444;SDS011;21562;49.476;6.086;2023-07-22T08:13:40;11.73;;;4.20;;
35444;SDS011;21562;49.476;6.086;2023-07-22T08:16:08;6.03;;;4.10;;
35444;SDS011;21562;49.476;6.086;2023-07-22T08:18:36;9.70;;;4.18;;
35444;SDS011;21562;49.476;6.086;2023-07-22T08:21:05;6.38;;;4.03;;
35444;SDS011;21562;49.476;6.086;2023-07-22T08:23:32;7.85;;;3.72;;
35444;SDS011;21562;49.476;6.086;2023-07-22T08:25:58;9.50;;;4.00;;
35444;SDS011;21562;49.476;6.086;2023-07-22T08:28:24;10.25;;;4.18;;
35444;SDS011;21562;49.476;6.086;2023-07-22T08:30:49;6.00;;;4.10;;
35444;SDS011;21562;49.476;6.086;2023-07-22T08:33:18;11.75;;;3.92;;
35444;SDS011;21562;49.476;6.086;2023-07-22T08:35:44;5.20;;;3.50;;
35444;SDS011;21562;49.476;6.086;2023-07-22T08:38:12;9.63;;;4.00;;
35444;SDS011;21562;49.476;6.086;2023-07-22T08:40:39;11.32;;;5.43;;
35444;SDS011;21562;49.476;6.086;2023-07-22T08:43:06;11.30;;;4.40;;
35444;SDS011;21562;49.476;6.086;2023-07-22T08:45:34;7.10;;;3.78;;
35444;SDS011;21562;49.476;6.086;2023-07-22T08:48:07;6.18;;;4.00;;
35444;SDS011;21562;49.476;6.086;2023-07-22T08:50:52;5.38;;;3.92;;
35444;SDS011;21562;49.476;6.086;2023-07-22T08:53:20;9.18;;;3.70;;
35444;SDS011;21562;49.476;6.086;2023-07-22T08:55:48;6.75;;;4.32;;
35444;SDS011;21562;49.476;6.086;2023-07-22T08:58:14;8.07;;;4.03;;
35444;SDS011;21562;49.476;6.086;2023-07-22T09:00:41;7.45;;;3.80;;
35444;SDS011;21562;49.476;6.086;2023-07-22T09:03:07;9.77;;;4.63;;
35444;SDS011;21562;49.476;6.086;2023-07-22T09:05:34;6.85;;;4.05;;
35444;SDS011;21562;49.476;6.086;2023-07-22T09:08:01;11.75;;;4.43;;
35444;SDS011;21562;49.476;6.086;2023-07-22T09:10:28;6.55;;;3.95;;
35444;SDS011;21562;49.476;6.086;2023-07-22T09:12:54;11.80;;;4.20;;
35444;SDS011;21562;49.476;6.086;2023-07-22T09:15:19;9.10;;;3.78;;
35444;SDS011;21562;49.476;6.086;2023-07-22T09:17:46;6.72;;;3.90;;
35444;SDS011;21562;49.476;6.086;2023-07-22T09:20:12;7.25;;;4.00;;
35444;SDS011;21562;49.476;6.086;2023-07-22T09:22:45;9.45;;;4.03;;
35444;SDS011;21562;49.476;6.086;2023-07-22T09:25:14;11.20;;;4.35;;
35444;SDS011;21562;49.476;6.086;2023-07-22T09:27:42;7.20;;;3.25;;
35444;SDS011;21562;49.476;6.086;2023-07-22T09:30:30;6.72;;;4.00;;
35444;SDS011;21562;49.476;6.086;2023-07-22T09:33:00;10.70;;;4.53;;
35444;SDS011;21562;49.476;6.086;2023-07-22T09:35:28;7.07;;;3.95;;
35444;SDS011;21562;49.476;6.086;2023-07-22T09:37:56;13.50;;;4.05;;
35444;SDS011;21562;49.476;6.086;2023-07-22T09:40:22;7.55;;;4.45;;
35444;SDS011;21562;49.476;6.086;2023-07-22T09:42:53;6.28;;;3.90;;
35444;SDS011;21562;49.476;6.086;2023-07-22T09:45:24;6.57;;;4.18;;
35444;SDS011;21562;49.476;6.086;2023-07-22T09:47:51;7.43;;;4.22;;
35444;SDS011;21562;49.476;6.086;2023-07-22T09:50:18;7.15;;;4.38;;
35444;SDS011;21562;49.476;6.086;2023-07-22T09:55:17;6.95;;;3.85;;
35444;SDS011;21562;49.476;6.086;2023-07-22T09:57:45;8.70;;;4.13;;
35444;SDS011;21562;49.476;6.086;2023-07-22T10:00:13;6.45;;;3.90;;
35444;SDS011;21562;49.476;6.086;2023-07-22T10:02:40;8.52;;;3.92;;
35444;SDS011;21562;49.476;6.086;2023-07-22T10:05:10;8.38;;;4.55;;
35444;SDS011;21562;49.476;6.086;2023-07-22T10:07:38;15.15;;;4.30;;
35444;SDS011;21562;49.476;6.086;2023-07-22T10:10:15;9.02;;;4.40;;
35444;SDS011;21562;49.476;6.086;2023-07-22T10:12:43;7.90;;;4.53;;
35444;SDS011;21562;49.476;6.086;2023-07-22T10:15:10;9.07;;;4.32;;
35444;SDS011;21562;49.476;6.086;2023-07-22T10:17:37;8.27;;;4.05;;
35444;SDS011;21562;49.476;6.086;2023-07-22T10:20:03;7.22;;;4.78;;
35444;SDS011;21562;49.476;6.086;2023-07-22T10:22:36;7.53;;;4.65;;
35444;SDS011;21562;49.476;6.086;2023-07-22T10:25:05;5.75;;;3.75;;
35444;SDS011;21562;49.476;6.086;2023-07-22T10:27:33;7.38;;;4.72;;
35444;SDS011;21562;49.476;6.086;2023-07-22T10:30:00;7.78;;;4.50;;
35444;SDS011;21562;49.476;6.086;2023-07-22T10:32:33;8.55;;;4.20;;
35444;SDS011;21562;49.476;6.086;2023-07-22T10:35:09;6.75;;;3.78;;
35444;SDS011;21562;49.476;6.086;2023-07-22T10:37:44;6.45;;;4.63;;
35444;SDS011;21562;49.476;6.086;2023-07-22T10:40:25;8.90;;;4.68;;
35444;SDS011;21562;49.476;6.086;2023-07-22T10:42:56;8.13;;;4.28;;
35444;SDS011;21562;49.476;6.086;2023-07-22T10:45:32;6.07;;;3.70;;
35444;SDS011;21562;49.476;6.086;2023-07-22T10:50:46;9.07;;;4.35;;
35444;SDS011;21562;49.476;6.086;2023-07-22T10:56:04;8.57;;;4.18;;
35444;SDS011;21562;49.476;6.086;2023-07-22T11:07:02;5.65;;;3.55;;
35444;SDS011;21562;49.476;6.086;2023-07-22T11:12:14;9.10;;;3.55;;
35444;SDS011;21562;49.476;6.086;2023-07-22T11:14:45;7.13;;;4.40;;
35444;SDS011;21562;49.476;6.086;2023-07-22T11:17:13;12.43;;;4.18;;
35444;SDS011;21562;49.476;6.086;2023-07-22T11:19:39;10.57;;;3.80;;
35444;SDS011;21562;49.476;6.086;2023-07-22T11:22:05;10.95;;;3.95;;
35444;SDS011;21562;49.476;6.086;2023-07-22T11:24:34;8.30;;;3.72;;
35444;SDS011;21562;49.476;6.086;2023-07-22T11:27:02;5.78;;;3.65;;
35444;SDS011;21562;49.476;6.086;2023-07-22T11:29:33;5.72;;;3.42;;
35444;SDS011;21562;49.476;6.086;2023-07-22T11:32:00;7.88;;;3.88;;
35444;SDS011;21562;49.476;6.086;2023-07-22T11:34:28;8.50;;;3.95;;
35444;SDS011;21562;49.476;6.086;2023-07-22T11:36:54;6.57;;;3.28;;
35444;SDS011;21562;49.476;6.086;2023-07-22T11:39:21;5.13;;;3.45;;
35444;SDS011;21562;49.476;6.086;2023-07-22T11:41:48;14.95;;;4.07;;
35444;SDS011;21562;49.476;6.086;2023-07-22T11:44:18;5.72;;;3.60;;
35444;SDS011;21562;49.476;6.086;2023-07-22T11:47:07;7.70;;;3.83;;
35444;SDS011;21562;49.476;6.086;2023-07-22T11:49:36;8.57;;;4.10;;
35444;SDS011;21562;49.476;6.086;2023-07-22T11:52:04;5.95;;;3.63;;
35444;SDS011;21562;49.476;6.086;2023-07-22T11:54:32;7.18;;;3.70;;
35444;SDS011;21562;49.476;6.086;2023-07-22T11:59:49;8.23;;;3.85;;
35444;SDS011;21562;49.476;6.086;2023-07-22T12:02:17;9.10;;;4.20;;
35444;SDS011;21562;49.476;6.086;2023-07-22T12:04:44;8.02;;;3.72;;
35444;SDS011;21562;49.476;6.086;2023-07-22T12:07:42;6.68;;;3.08;;
35444;SDS011;21562;49.476;6.086;2023-07-22T12:10:07;5.53;;;4.18;;
35444;SDS011;21562;49.476;6.086;2023-07-22T12:12:45;6.25;;;3.90;;
35444;SDS011;21562;49.476;6.086;2023-07-22T12:17:51;8.23;;;4.07;;
35444;SDS011;21562;49.476;6.086;2023-07-22T12:20:27;5.35;;;3.40;;
35444;SDS011;21562;49.476;6.086;2023-07-22T12:22:55;8.20;;;4.25;;
35444;SDS011;21562;49.476;6.086;2023-07-22T12:25:21;14.30;;;3.95;;
35444;SDS011;21562;49.476;6.086;2023-07-22T12:27:47;6.78;;;3.85;;
35444;SDS011;21562;49.476;6.086;2023-07-22T12:30:13;7.80;;;3.67;;
35444;SDS011;21562;49.476;6.086;2023-07-22T12:32:40;9.00;;;4.00;;
35444;SDS011;21562;49.476;6.086;2023-07-22T12:35:06;11.13;;;3.88;;
35444;SDS011;21562;49.476;6.086;2023-07-22T12:37:32;9.95;;;4.10;;
35444;SDS011;21562;49.476;6.086;2023-07-22T12:39:57;9.88;;;3.95;;
35444;SDS011;21562;49.476;6.086;2023-07-22T12:42:23;6.90;;;3.72;;
35444;SDS011;21562;49.476;6.086;2023-07-22T12:44:49;9.88;;;4.22;;
35444;SDS011;21562;49.476;6.086;2023-07-22T12:47:14;9.52;;;4.07;;
35444;SDS011;21562;49.476;6.086;2023-07-22T12:49:40;7.75;;;4.28;;
35444;SDS011;21562;49.476;6.086;2023-07-22T12:52:06;6.18;;;4.28;;
35444;SDS011;21562;49.476;6.086;2023-07-22T12:54:34;8.68;;;4.30;;
35444;SDS011;21562;49.476;6.086;2023-07-22T12:57:01;11.23;;;4.28;;
35444;SDS011;21562;49.476;6.086;2023-07-22T12:59:27;8.27;;;4.28;;
35444;SDS011;21562;49.476;6.086;2023-07-22T13:01:56;7.65;;;3.65;;
35444;SDS011;21562;49.476;6.086;2023-07-22T13:04:25;6.40;;;3.40;;
35444;SDS011;21562;49.476;6.086;2023-07-22T13:06:54;6.05;;;3.90;;
35444;SDS011;21562;49.476;6.086;2023-07-22T13:09:20;5.22;;;3.67;;
35444;SDS011;21562;49.476;6.086;2023-07-22T13:11:46;9.07;;;4.65;;
35444;SDS011;21562;49.476;6.086;2023-07-22T13:14:12;7.75;;;4.38;;
35444;SDS011;21562;49.476;6.086;2023-07-22T13:16:37;8.43;;;4.00;;
35444;SDS011;21562;49.476;6.086;2023-07-22T13:19:03;14.82;;;4.20;;
35444;SDS011;21562;49.476;6.086;2023-07-22T13:21:29;11.45;;;3.83;;
35444;SDS011;21562;49.476;6.086;2023-07-22T13:23:54;8.98;;;4.15;;
35444;SDS011;21562;49.476;6.086;2023-07-22T13:26:20;16.23;;;4.18;;
35444;SDS011;21562;49.476;6.086;2023-07-22T13:28:46;8.50;;;3.67;;
35444;SDS011;21562;49.476;6.086;2023-07-22T13:31:11;5.25;;;3.60;;
35444;SDS011;21562;49.476;6.086;2023-07-22T13:33:37;5.75;;;3.35;;
35444;SDS011;21562;49.476;6.086;2023-07-22T13:36:03;7.45;;;4.18;;
35444;SDS011;21562;49.476;6.086;2023-07-22T13:38:28;12.02;;;4.93;;
35444;SDS011;21562;49.476;6.086;2023-07-22T13:40:54;9.95;;;4.43;;
35444;SDS011;21562;49.476;6.086;2023-07-22T13:43:20;6.63;;;4.03;;
35444;SDS011;21562;49.476;6.086;2023-07-22T13:45:45;7.55;;;3.47;;
35444;SDS011;21562;49.476;6.086;2023-07-22T13:48:11;5.82;;;4.05;;
35444;SDS011;21562;49.476;6.086;2023-07-22T13:50:37;9.93;;;3.88;;
35444;SDS011;21562;49.476;6.086;2023-07-22T13:53:03;11.50;;;4.35;;
35444;SDS011;21562;49.476;6.086;2023-07-22T13:55:28;7.20;;;3.28;;
35444;SDS011;21562;49.476;6.086;2023-07-22T13:57:54;7.55;;;3.60;;
35444;SDS011;21562;49.476;6.086;2023-07-22T14:00:20;10.48;;;3.60;;
35444;SDS011;21562;49.476;6.086;2023-07-22T14:02:45;7.00;;;3.67;;
35444;SDS011;21562;49.476;6.086;2023-07-22T14:05:11;5.05;;;3.67;;
35444;SDS011;21562;49.476;6.086;2023-07-22T14:07:38;8.45;;;4.15;;
35444;SDS011;21562;49.476;6.086;2023-07-22T14:10:04;6.63;;;4.07;;
35444;SDS011;21562;49.476;6.086;2023-07-22T14:12:31;6.53;;;4.05;;
35444;SDS011;21562;49.476;6.086;2023-07-22T14:14:56;6.70;;;3.80;;
35444;SDS011;21562;49.476;6.086;2023-07-22T14:17:22;10.02;;;4.00;;
35444;SDS011;21562;49.476;6.086;2023-07-22T14:19:47;11.25;;;4.35;;
35444;SDS011;21562;49.476;6.086;2023-07-22T14:22:13;7.90;;;4.05;;
35444;SDS011;21562;49.476;6.086;2023-07-22T14:24:39;6.80;;;3.58;;
35444;SDS011;21562;49.476;6.086;2023-07-22T14:27:05;7.65;;;3.70;;
35444;SDS011;21562;49.476;6.086;2023-07-22T14:29:31;8.25;;;4.32;;
35444;SDS011;21562;49.476;6.086;2023-07-22T14:31:56;5.43;;;4.07;;
35444;SDS011;21562;49.476;6.086;2023-07-22T14:34:22;5.97;;;3.78;;
35444;SDS011;21562;49.476;6.086;2023-07-22T14:36:48;9.77;;;3.85;;
35444;SDS011;21562;49.476;6.086;2023-07-22T14:39:15;6.60;;;3.78;;
35444;SDS011;21562;49.476;6.086;2023-07-22T14:41:41;9.63;;;4.15;;
35444;SDS011;21562;49.476;6.086;2023-07-22T14:44:08;7.25;;;3.72;;
35444;SDS011;21562;49.476;6.086;2023-07-22T14:46:34;5.63;;;4.18;;
35444;SDS011;21562;49.476;6.086;2023-07-22T14:49:00;10.52;;;4.05;;
35444;SDS011;21562;49.476;6.086;2023-07-22T14:51:26;10.27;;;4.35;;
35444;SDS011;21562;49.476;6.086;2023-07-22T14:53:52;5.82;;;3.60;;
35444;SDS011;21562;49.476;6.086;2023-07-22T14:56:17;8.35;;;4.28;;
35444;SDS011;21562;49.476;6.086;2023-07-22T14:58:43;6.25;;;3.65;;
35444;SDS011;21562;49.476;6.086;2023-07-22T15:01:09;7.22;;;3.58;;
35444;SDS011;21562;49.476;6.086;2023-07-22T15:03:36;6.05;;;4.00;;
35444;SDS011;21562;49.476;6.086;2023-07-22T15:06:02;6.80;;;4.20;;